CHICAGO O'HARE INTL

KORD (ORD)
Chicago, Illinois
Towered

Vatsim Metar:
KORD 271651Z 25014G25KT 10SM BKN060 OVC150 M02/M09 A3007 RMK AO2 PK WND 25026/1632 SLP191 T10221094

No ATC Online

Traffic

Inbound:
Ident
Type
Name
ETA
Phase
CNT2120
B738
Marcos Ortencio SBCT
Taxiing Out
CAL5236
B744
Samy EDDH
18:44 Z
Cruse
UAE9367
B77L
Anton Olsson ESGG
19:23 Z
Cruse
RJA263
B788
Nadeem Zabaneh
19:20 Z
Cruse
CMP235
B738
Gabriel Z. MPTO
Unknown
AAR236
B772
Justin Tan WSSS
05:11 Z
Descent

Outbound:
Ident
Type
Name
Destination
Phase
UAL881
B772
Anthony Saiters CYYZ
RJAA
Boarding
UAL407
B772
Ethan Title CYHZ
KDEN
Taxiing Out
AAL6160
A20N
Patrick KCMH
CYUL
Climb
UAE936S
B77L
Ryan Barneveld EHAM
SEQM
Climb